Hier das METAR für die 16 wichtigsten Deutschen Flughäfen.
(dauert ein wenig.... ich muss laden.....)

ODER
METAR nach ICAO Code suchen

Berlin - Schönefeld

EDDB

METAR
EDDB 242250Z 15004KT 4000 BCFG BR NSC M02/M02 Q1022 TEMPO 1200 BCFG
EDDBMETAR lang
Berlin-Schoenefeld, Germany (EDDB) 52-23N 013-31E 50M
Nov 24, 2020 - 05:50 PM EST / 2020.11.24 2250 UTC
Wind: from the SSE (150 degrees) at 5 MPH (4 KT):0
Visibility: 2 mile(s):0
Weather: patches of fog; mist
Temperature: 28 F (-2 C)
Windchill: 23 F (-5 C):1
Dew Point: 28 F (-2 C)
Relative Humidity: 100%
Pressure (altimeter): 30.18 in. Hg (1022 hPa)
ob: EDDB 242250Z 15004KT 4000 BCFG BR NSC M02/M02 Q1022 TEMPO 1200 BCFG
cycle: 23

Dresden

EDDC

METAR
EDDC 242250Z 14006KT 110V180 CAVOK 00/M01 Q1022
EDDCMETAR lang
Dresden-Klotzsche, Germany (EDDC) 51-08N 013-45E 232M
Nov 24, 2020 - 05:50 PM EST / 2020.11.24 2250 UTC
Wind: from the SE (140 degrees) at 7 MPH (6 KT) (direction variable):0
Visibility: greater than 7 mile(s):0
Temperature: 32 F (0 C)
Windchill: 24 F (-4 C):1
Dew Point: 30 F (-1 C)
Relative Humidity: 92%
Pressure (altimeter): 30.18 in. Hg (1022 hPa)
ob: EDDC 242250Z 14006KT 110V180 CAVOK 00/M01 Q1022
cycle: 23

Erfurt

EDDE

METAR
EDDE 242250Z 19005KT CAVOK M01/M02 Q1021
EDDEMETAR lang
Erfurt-Bindersleben, Germany (EDDE) 50-59N 010-58E 322M
Nov 24, 2020 - 05:50 PM EST / 2020.11.24 2250 UTC
Wind: from the S (190 degrees) at 6 MPH (5 KT):0
Visibility: greater than 7 mile(s):0
Temperature: 30 F (-1 C)
Windchill: 23 F (-5 C):1
Dew Point: 28 F (-2 C)
Relative Humidity: 92%
Pressure (altimeter): 30.15 in. Hg (1021 hPa)
ob: EDDE 242250Z 19005KT CAVOK M01/M02 Q1021
cycle: 23

Frankfurt a. Main

EDDF

METAR
EDDF 242250Z 06003KT 9999 FEW011 BKN017 06/04 Q1021 BECMG BKN014
EDDFMETAR lang
Frankfurt / M-Flughafen, Germany (EDDF) 50-03N 008-36E 113M
Nov 24, 2020 - 05:50 PM EST / 2020.11.24 2250 UTC
Wind: from the ENE (060 degrees) at 3 MPH (3 KT):0
Visibility: greater than 7 mile(s):0
Sky conditions: mostly cloudy
Temperature: 42 F (6 C)
Dew Point: 39 F (4 C)
Relative Humidity: 86%
Pressure (altimeter): 30.15 in. Hg (1021 hPa)
ob: EDDF 242250Z 06003KT 9999 FEW011 BKN017 06/04 Q1021 BECMG BKN014
cycle: 23

Münster Osnabrück

EDDG

METAR
EDDG 242250Z 12004KT 060V170 CAVOK 03/02 Q1019 NOSIG
EDDGMETAR lang
Muenster / Osnabrueck, Germany (EDDG) 52-08N 007-42E 53M
Nov 24, 2020 - 05:50 PM EST / 2020.11.24 2250 UTC
Wind: from the ESE (120 degrees) at 5 MPH (4 KT) (direction variable):0
Visibility: greater than 7 mile(s):0
Temperature: 37 F (3 C)
Dew Point: 35 F (2 C)
Relative Humidity: 93%
Pressure (altimeter): 30.09 in. Hg (1019 hPa)
ob: EDDG 242250Z 12004KT 060V170 CAVOK 03/02 Q1019 NOSIG
cycle: 23

Hamburg

EDDH

METAR
EDDH 242250Z 17004KT CAVOK 04/03 Q1019 NOSIG
EDDHMETAR lang
Hamburg-Fuhlsbuettel, Germany (EDDH) 53-38N 010-00E 15M
Nov 24, 2020 - 05:50 PM EST / 2020.11.24 2250 UTC
Wind: from the S (170 degrees) at 5 MPH (4 KT):0
Visibility: greater than 7 mile(s):0
Temperature: 39 F (4 C)
Dew Point: 37 F (3 C)
Relative Humidity: 93%
Pressure (altimeter): 30.09 in. Hg (1019 hPa)
ob: EDDH 242250Z 17004KT CAVOK 04/03 Q1019 NOSIG
cycle: 23

Köln - Bonn

EDDK

METAR
EDDK 242250Z 13009KT 9999 SCT013 06/03 Q1020 TEMPO BKN013
EDDKMETAR lang
Koeln / Bonn, Germany (EDDK) 50-52N 007-10E 100M
Nov 24, 2020 - 05:50 PM EST / 2020.11.24 2250 UTC
Wind: from the SE (130 degrees) at 10 MPH (9 KT):0
Visibility: greater than 7 mile(s):0
Sky conditions: partly cloudy
Temperature: 42 F (6 C)
Dew Point: 37 F (3 C)
Relative Humidity: 81%
Pressure (altimeter): 30.12 in. Hg (1020 hPa)
ob: EDDK 242250Z 13009KT 9999 SCT013 06/03 Q1020 TEMPO BKN013
cycle: 23

Düsseldorf

EDDL

METAR
EDDL 242250Z 15015KT 9999 FEW012 06/03 Q1019 NOSIG
EDDLMETAR lang
Duesseldorf, Germany (EDDL) 51-18N 006-46E 41M
Nov 24, 2020 - 05:50 PM EST / 2020.11.24 2250 UTC
Wind: from the SSE (150 degrees) at 17 MPH (15 KT):0
Visibility: greater than 7 mile(s):0
Sky conditions: mostly clear
Temperature: 42 F (6 C)
Dew Point: 37 F (3 C)
Relative Humidity: 81%
Pressure (altimeter): 30.09 in. Hg (1019 hPa)
ob: EDDL 242250Z 15015KT 9999 FEW012 06/03 Q1019 NOSIG
cycle: 23

München

EDDM

METAR
EDDM 242250Z 09004KT 9999 OVC004 02/01 Q1022 NOSIG
EDDMMETAR lang
Munchen, Germany (EDDM) 48-21N 011-47E
Nov 24, 2020 - 05:50 PM EST / 2020.11.24 2250 UTC
Wind: from the E (090 degrees) at 5 MPH (4 KT):0
Visibility: greater than 7 mile(s):0
Sky conditions: overcast
Temperature: 35 F (2 C)
Windchill: 30 F (-1 C):1
Dew Point: 33 F (1 C)
Relative Humidity: 93%
Pressure (altimeter): 30.18 in. Hg (1022 hPa)
ob: EDDM 242250Z 09004KT 9999 OVC004 02/01 Q1022 NOSIG
cycle: 23

Nürnberg

EDDN

METAR
EDDN 242250Z 15007KT 8000 OVC004 02/01 Q1022
EDDNMETAR lang
Nuernberg, Germany (EDDN) 49-30N 011-03E 318M
Nov 24, 2020 - 05:50 PM EST / 2020.11.24 2250 UTC
Wind: from the SSE (150 degrees) at 8 MPH (7 KT):0
Visibility: 4 mile(s):0
Sky conditions: overcast
Temperature: 35 F (2 C)
Windchill: 28 F (-2 C):1
Dew Point: 33 F (1 C)
Relative Humidity: 93%
Pressure (altimeter): 30.18 in. Hg (1022 hPa)
ob: EDDN 242250Z 15007KT 8000 OVC004 02/01 Q1022
cycle: 23

Leipzig - Halle

EDDP

METAR
EDDP 242250Z 20007KT 9999 BKN007 01/00 Q1022 NOSIG
EDDPMETAR lang
Leipzig-Schkeuditz, Germany (EDDP) 51-25N 012-14E 149M
Nov 24, 2020 - 05:50 PM EST / 2020.11.24 2250 UTC
Wind: from the SSW (200 degrees) at 8 MPH (7 KT):0
Visibility: greater than 7 mile(s):0
Sky conditions: mostly cloudy
Temperature: 33 F (1 C)
Windchill: 26 F (-3 C):1
Dew Point: 32 F (0 C)
Relative Humidity: 93%
Pressure (altimeter): 30.18 in. Hg (1022 hPa)
ob: EDDP 242250Z 20007KT 9999 BKN007 01/00 Q1022 NOSIG
cycle: 23

Saarbrücken

EDDR

METAR
EDDR 242250Z 11005KT 080V140 9000 BKN004 04/03 Q1020
EDDRMETAR lang
Saarbruecken / Ensheim, Germany (EDDR) 49-13N 007-07E 320M
Nov 24, 2020 - 05:50 PM EST / 2020.11.24 2250 UTC
Wind: from the ESE (110 degrees) at 6 MPH (5 KT) (direction variable):0
Visibility: 5 mile(s):0
Sky conditions: mostly cloudy
Temperature: 39 F (4 C)
Dew Point: 37 F (3 C)
Relative Humidity: 93%
Pressure (altimeter): 30.12 in. Hg (1020 hPa)
ob: EDDR 242250Z 11005KT 080V140 9000 BKN004 04/03 Q1020
cycle: 23

Stuttgart

EDDS

METAR
EDDS 242250Z 05002KT 9999 BCFG NSC M01/M01 Q1021
EDDSMETAR lang
Stuttgart-Echterdingen, Germany (EDDS) 48-41N 009-13E 391M
Nov 24, 2020 - 05:50 PM EST / 2020.11.24 2250 UTC
Wind: from the NE (050 degrees) at 2 MPH (2 KT):0
Visibility: greater than 7 mile(s):0
Weather: patches of fog
Temperature: 30 F (-1 C)
Dew Point: 30 F (-1 C)
Relative Humidity: 100%
Pressure (altimeter): 30.15 in. Hg (1021 hPa)
ob: EDDS 242250Z 05002KT 9999 BCFG NSC M01/M01 Q1021
cycle: 23

Berlin - Tegel

EDDT

METAR
EDDT 090650Z 09006KT 050V120 3000 BR OVC003 06/05 Q1027
EDDTMETAR lang
Berlin-Tegel, Germany (EDDT) 52-34N 013-19E 37M
Nov 09, 2020 - 01:50 AM EST / 2020.11.09 0650 UTC
Wind: from the E (090 degrees) at 7 MPH (6 KT) (direction variable):0
Visibility: 1 mile(s):0
Sky conditions: overcast
Weather: mist
Temperature: 42 F (6 C)
Dew Point: 41 F (5 C)
Relative Humidity: 93%
Pressure (altimeter): 30.33 in. Hg (1027 hPa)
ob: EDDT 090650Z 09006KT 050V120 3000 BR OVC003 06/05 Q1027
cycle: 7

Hannover

EDDV

METAR
EDDV 242250Z 16003KT 100V220 CAVOK 03/02 Q1020
EDDVMETAR lang
Hannover, Germany (EDDV) 52-28N 009-41E 59M
Nov 24, 2020 - 05:50 PM EST / 2020.11.24 2250 UTC
Wind: from the SSE (160 degrees) at 3 MPH (3 KT) (direction variable):0
Visibility: greater than 7 mile(s):0
Temperature: 37 F (3 C)
Dew Point: 35 F (2 C)
Relative Humidity: 93%
Pressure (altimeter): 30.12 in. Hg (1020 hPa)
ob: EDDV 242250Z 16003KT 100V220 CAVOK 03/02 Q1020
cycle: 23

Bremen

EDDW

METAR
EDDW 242250Z 14005KT CAVOK 03/02 Q1019
EDDWMETAR lang
Bremen, Germany (EDDW) 53-03N 008-48E 5M
Nov 24, 2020 - 05:50 PM EST / 2020.11.24 2250 UTC
Wind: from the SE (140 degrees) at 6 MPH (5 KT):0
Visibility: greater than 7 mile(s):0
Temperature: 37 F (3 C)
Dew Point: 35 F (2 C)
Relative Humidity: 93%
Pressure (altimeter): 30.09 in. Hg (1019 hPa)
ob: EDDW 242250Z 14005KT CAVOK 03/02 Q1019
cycle: 23